createdAt,value
2022-09-05T08:36:23.307Z,93.40
2022-09-05T08:38:52.112Z,92.90
2022-09-05T08:41:49.353Z,92.50
2022-09-05T08:46:39.748Z,92.20
2022-09-05T08:47:27.395Z,92.20
2022-09-05T08:50:17.823Z,92.30
2022-09-05T08:52:57.946Z,92.30
2022-09-05T08:55:39.543Z,91.80
2022-09-05T08:58:35.655Z,91.80
2022-09-05T09:01:14.654Z,91.60
2022-09-05T09:04:06.025Z,91.80
2022-09-05T09:07:36.805Z,91.70
2022-09-05T09:10:04.161Z,91.70
2022-09-05T09:12:57.957Z,91.70
2022-09-05T09:15:35.740Z,91.80
2022-09-05T09:18:13.039Z,91.80
2022-09-05T09:20:52.790Z,91.80
2022-09-05T09:23:44.150Z,91.80
2022-09-05T09:26:17.591Z,91.70
2022-09-05T09:28:52.334Z,91.80
2022-09-05T09:31:44.131Z,91.80
2022-09-05T09:34:39.687Z,91.80
2022-09-05T09:37:51.595Z,91.70
2022-09-05T09:40:52.299Z,91.70
2022-09-05T09:43:39.382Z,91.60
2022-09-05T09:46:20.967Z,91.50
2022-09-05T09:49:22.597Z,91.40
2022-09-05T09:52:22.144Z,91.40
2022-09-05T09:55:39.172Z,91.20
2022-09-05T09:58:38.752Z,91.20
2022-09-05T10:01:35.817Z,91.10
2022-09-05T10:10:34.353Z,91.00
2022-09-05T10:10:45.059Z,90.90
2022-09-05T10:11:35.113Z,90.90
2022-09-05T10:14:47.737Z,90.80
2022-09-05T10:17:42.117Z,90.90
2022-09-05T10:20:56.847Z,90.90
2022-09-05T10:23:50.789Z,90.90
2022-09-05T10:26:41.329Z,90.90
2022-09-05T10:29:37.077Z,90.90
2022-09-05T10:35:10.888Z,90.80
2022-09-05T10:35:13.824Z,90.80
2022-09-05T10:37:56.310Z,90.90
2022-09-05T10:40:26.720Z,91.00
2022-09-05T10:43:01.213Z,90.90
2022-09-05T10:45:39.120Z,91.00
2022-09-05T10:48:14.186Z,90.90
2022-09-05T10:50:47.334Z,90.80
2022-09-05T10:53:42.358Z,90.70
2022-09-05T10:56:14.834Z,90.70
2022-09-05T11:00:19.423Z,90.70
2022-09-05T11:02:28.783Z,90.80
2022-09-05T11:05:08.160Z,90.70
2022-09-05T11:07:43.579Z,90.70
2022-09-05T11:10:20.350Z,90.70
2022-09-05T11:13:02.330Z,90.50
2022-09-05T11:15:36.166Z,90.40
2022-09-05T11:18:11.403Z,90.40
2022-09-05T11:20:50.186Z,90.30
2022-09-05T11:23:22.535Z,90.40
2022-09-05T11:26:00.850Z,90.40
2022-09-05T11:28:57.564Z,90.50
2022-09-05T11:32:04.249Z,90.60
2022-09-05T11:34:58.777Z,90.70
2022-09-05T11:39:59.172Z,90.60
2022-09-05T11:41:48.733Z,90.60
2022-09-05T11:44:27.516Z,90.70
2022-09-05T11:47:37.066Z,90.80
2022-09-05T11:50:53.816Z,90.90
2022-09-05T11:53:59.127Z,90.90
2022-09-05T11:56:57.805Z,90.90
2022-09-05T12:00:33.429Z,90.80
2022-09-05T12:03:59.156Z,90.70
2022-09-05T12:06:57.464Z,90.80
2022-09-05T12:09:50.180Z,90.80
2022-09-05T12:12:39.363Z,90.80
2022-09-05T12:15:34.277Z,90.90
2022-09-05T12:18:24.126Z,90.80
2022-09-05T12:21:03.643Z,90.80
2022-09-05T12:24:28.574Z,91.00
2022-09-05T12:27:40.714Z,91.00
2022-09-05T12:29:46.862Z,91.10
2022-09-05T12:33:17.524Z,91.20
2022-09-05T12:36:12.812Z,91.20
2022-09-05T12:40:54.149Z,91.10
2022-09-05T12:41:40.656Z,91.30
2022-09-05T12:44:44.119Z,91.40
2022-09-05T12:47:20.019Z,91.30
2022-09-05T12:50:03.544Z,91.30
2022-09-05T12:52:46.626Z,91.40
2022-09-05T12:55:26.054Z,91.50
2022-09-05T13:02:59.400Z,91.40
2022-09-05T13:03:05.041Z,91.50
2022-09-05T13:04:15.877Z,91.30
2022-09-05T13:06:45.406Z,91.10
2022-09-05T13:09:22.225Z,91.20
2022-09-05T13:14:56.585Z,91.20
2022-09-05T13:15:14.029Z,91.30
2022-09-05T13:17:51.581Z,91.00
2022-09-05T13:20:34.419Z,90.70
2022-09-05T13:23:14.378Z,90.40
2022-09-05T13:25:50.632Z,89.50
2022-09-05T13:28:20.132Z,89.10
2022-09-05T13:32:48.407Z,88.90
2022-09-05T13:38:06.157Z,90.60
2022-09-05T13:38:12.200Z,90.30
2022-09-05T13:39:41.555Z,90.70
2022-09-05T13:42:18.481Z,90.80
2022-09-05T13:44:48.380Z,91.00
2022-09-05T13:47:40.051Z,91.10
2022-09-05T13:50:22.402Z,91.10
2022-09-05T13:52:56.688Z,91.30
2022-09-05T13:55:42.856Z,91.50
2022-09-05T13:58:17.573Z,91.50
2022-09-05T14:01:08.507Z,91.60
2022-09-05T14:04:11.709Z,91.70
2022-09-05T14:10:13.429Z,91.80
2022-09-05T14:12:49.156Z,91.80
2022-09-05T14:15:33.195Z,91.60
2022-09-05T14:18:20.471Z,92.00
2022-09-05T14:21:14.355Z,92.20
2022-09-05T14:23:56.282Z,92.30
2022-09-05T14:26:33.343Z,92.10
2022-09-05T14:29:21.929Z,92.40
2022-09-05T14:37:34.449Z,92.50
2022-09-05T14:37:50.482Z,92.30
2022-09-05T14:38:15.693Z,92.40
2022-09-05T14:41:17.349Z,92.50
2022-09-05T14:44:28.545Z,92.40
2022-09-05T14:47:35.275Z,92.50
2022-09-05T14:50:30.164Z,92.70
2022-09-05T14:56:36.738Z,92.30
2022-09-05T15:02:42.337Z,92.70
2022-09-05T15:02:53.003Z,92.90
2022-09-05T15:04:44.652Z,92.60
2022-09-05T15:07:19.540Z,92.90
2022-09-05T15:12:20.314Z,92.80
2022-09-05T15:12:51.959Z,92.70
2022-09-05T15:15:28.685Z,92.40
2022-09-05T15:18:10.043Z,92.50
2022-09-05T15:20:40.250Z,92.60
2022-09-05T15:23:16.812Z,92.60
2022-09-05T15:25:48.737Z,92.40
2022-09-05T15:28:32.086Z,92.70
2022-09-05T15:31:04.650Z,92.80
2022-09-05T15:33:35.650Z,92.50
2022-09-05T15:36:05.639Z,92.50
2022-09-05T15:38:55.038Z,92.70
2022-09-05T15:41:25.820Z,92.60
2022-09-05T15:44:02.016Z,92.70
2022-09-05T15:46:49.325Z,92.60
2022-09-05T15:49:33.213Z,92.50
2022-09-05T15:52:07.005Z,92.20
2022-09-05T15:54:39.363Z,92.40
2022-09-05T15:57:17.849Z,92.50
2022-09-05T15:59:52.714Z,92.50
2022-09-05T16:02:26.700Z,92.20
2022-09-05T16:10:28.011Z,92.00
2022-09-05T16:10:38.140Z,91.90
2022-09-05T16:11:05.437Z,91.90
2022-09-05T16:13:53.142Z,91.90
2022-09-05T16:23:19.762Z,92.00
2022-09-05T16:23:23.411Z,91.70
2022-09-05T16:23:29.697Z,91.80
2022-09-05T16:25:10.583Z,91.60
2022-09-05T16:27:47.755Z,91.80
2022-09-05T16:30:23.098Z,91.80
2022-09-05T16:32:55.368Z,91.90
2022-09-05T16:35:25.013Z,92.20
2022-09-05T16:38:04.173Z,92.50
2022-09-05T16:40:36.316Z,92.40
2022-09-05T16:43:10.325Z,92.20
2022-09-05T16:45:47.847Z,92.30
2022-09-05T16:48:36.554Z,92.70
2022-09-05T16:51:15.647Z,92.50
2022-09-05T16:53:58.263Z,92.80
2022-09-05T16:56:34.553Z,92.90
2022-09-05T16:59:08.274Z,93.10
2022-09-05T17:02:06.445Z,92.90
2022-09-05T17:05:05.041Z,93.30
2022-09-05T17:08:03.793Z,93.00
2022-09-05T17:10:42.580Z,92.80
2022-09-05T17:13:16.725Z,93.10
2022-09-05T17:15:52.857Z,93.10
2022-09-05T17:18:26.904Z,93.30
2022-09-05T17:21:00.701Z,93.40
2022-09-05T17:29:20.110Z,93.50
2022-09-05T17:29:28.739Z,93.30
2022-09-05T17:32:47.323Z,92.60
2022-09-05T17:35:43.010Z,92.50
2022-09-05T17:38:43.795Z,92.40
2022-09-05T17:41:43.423Z,92.20
2022-09-05T17:44:19.410Z,92.10
2022-09-05T17:47:00.311Z,92.10
2022-09-05T17:49:45.317Z,92.10
2022-09-05T17:52:24.282Z,92.00
2022-09-05T17:54:57.015Z,92.00
2022-09-05T17:57:41.349Z,92.10
2022-09-05T18:01:01.117Z,92.10
